Hurt, Virginia
Current Conditions -  °F | °C
As of 5:35 AM on Thursday 23 Oct 2014 (Local Time) from K0V4 Reporting Station
Clear Clear  
Wind Chill: 47°   Ceiling: Unl
Heat Index: 49°   Visibility: 10mi
Dew Point: 42°   Wind: 6mph
Humidity: 77%   Direction: 270°W
Pressure: 29.98"   Gusts: NA
Location:  37.09°N, 79.3°W
Report Text: K0V4 230935Z AUTO 27005KT 10SM CLR 10/06 A2998 RMK AO1 T00950057
Loading
Personal Weather Stations






























Interactive Weather Map
Tropical Storm Tracking
New forecast layout! Learn more

10-Day Weather Forecast

Advertisements
Track Severe Weather on mobile